sensor_id;sensor_type;location;lat;lon;timestamp;P1;durP1;ratioP1;P2;durP2;ratioP2
10717;SDS011;13513;42.700;23.124;2022-11-15T00:01:08;48.47;;;26.40;;
10717;SDS011;13513;42.700;23.124;2022-11-15T00:03:39;46.53;;;25.80;;
10717;SDS011;13513;42.700;23.124;2022-11-15T00:06:10;43.20;;;26.30;;
10717;SDS011;13513;42.700;23.124;2022-11-15T00:08:40;49.17;;;28.00;;
10717;SDS011;13513;42.700;23.124;2022-11-15T00:11:11;51.23;;;29.57;;
10717;SDS011;13513;42.700;23.124;2022-11-15T00:13:42;46.43;;;27.70;;
10717;SDS011;13513;42.700;23.124;2022-11-15T00:16:12;40.60;;;24.60;;
10717;SDS011;13513;42.700;23.124;2022-11-15T00:18:44;38.87;;;23.63;;
10717;SDS011;13513;42.700;23.124;2022-11-15T00:21:15;41.47;;;23.60;;
10717;SDS011;13513;42.700;23.124;2022-11-15T00:23:46;46.23;;;26.27;;
10717;SDS011;13513;42.700;23.124;2022-11-15T00:26:17;46.50;;;26.70;;
10717;SDS011;13513;42.700;23.124;2022-11-15T00:28:48;48.63;;;25.97;;
10717;SDS011;13513;42.700;23.124;2022-11-15T00:31:20;45.37;;;27.27;;
10717;SDS011;13513;42.700;23.124;2022-11-15T00:33:51;49.87;;;28.10;;
10717;SDS011;13513;42.700;23.124;2022-11-15T00:36:22;51.10;;;28.17;;
10717;SDS011;13513;42.700;23.124;2022-11-15T00:38:54;43.03;;;27.07;;
10717;SDS011;13513;42.700;23.124;2022-11-15T00:41:24;49.97;;;29.93;;
10717;SDS011;13513;42.700;23.124;2022-11-15T00:43:55;52.80;;;29.00;;
10717;SDS011;13513;42.700;23.124;2022-11-15T00:46:26;55.20;;;29.33;;
10717;SDS011;13513;42.700;23.124;2022-11-15T00:48:57;53.17;;;30.87;;
10717;SDS011;13513;42.700;23.124;2022-11-15T00:51:27;53.03;;;29.90;;
10717;SDS011;13513;42.700;23.124;2022-11-15T00:53:57;62.00;;;33.47;;
10717;SDS011;13513;42.700;23.124;2022-11-15T00:56:28;100.90;;;52.07;;
10717;SDS011;13513;42.700;23.124;2022-11-15T00:58:58;102.63;;;52.73;;
10717;SDS011;13513;42.700;23.124;2022-11-15T01:01:29;60.80;;;34.30;;
10717;SDS011;13513;42.700;23.124;2022-11-15T01:04:00;70.90;;;39.70;;
10717;SDS011;13513;42.700;23.124;2022-11-15T01:06:31;67.43;;;37.70;;
10717;SDS011;13513;42.700;23.124;2022-11-15T01:09:04;49.27;;;28.70;;
10717;SDS011;13513;42.700;23.124;2022-11-15T01:11:34;56.10;;;30.03;;
10717;SDS011;13513;42.700;23.124;2022-11-15T01:14:05;49.27;;;29.07;;
10717;SDS011;13513;42.700;23.124;2022-11-15T01:16:36;50.50;;;28.73;;
10717;SDS011;13513;42.700;23.124;2022-11-15T01:19:07;49.63;;;28.33;;
10717;SDS011;13513;42.700;23.124;2022-11-15T01:21:38;54.07;;;30.37;;
10717;SDS011;13513;42.700;23.124;2022-11-15T01:24:11;49.37;;;29.47;;
10717;SDS011;13513;42.700;23.124;2022-11-15T01:26:41;49.60;;;29.87;;
10717;SDS011;13513;42.700;23.124;2022-11-15T01:29:11;55.80;;;32.57;;
10717;SDS011;13513;42.700;23.124;2022-11-15T01:31:43;57.87;;;31.70;;
10717;SDS011;13513;42.700;23.124;2022-11-15T01:34:13;53.73;;;30.20;;
10717;SDS011;13513;42.700;23.124;2022-11-15T01:36:44;52.70;;;29.33;;
10717;SDS011;13513;42.700;23.124;2022-11-15T01:39:16;49.47;;;29.40;;
10717;SDS011;13513;42.700;23.124;2022-11-15T01:41:46;50.63;;;26.60;;
10717;SDS011;13513;42.700;23.124;2022-11-15T01:47:23;48.03;;;25.97;;
10717;SDS011;13513;42.700;23.124;2022-11-15T01:49:55;47.47;;;27.57;;
10717;SDS011;13513;42.700;23.124;2022-11-15T01:52:33;47.63;;;27.47;;
10717;SDS011;13513;42.700;23.124;2022-11-15T01:55:08;47.57;;;26.93;;
10717;SDS011;13513;42.700;23.124;2022-11-15T01:57:39;50.20;;;29.67;;
10717;SDS011;13513;42.700;23.124;2022-11-15T02:00:11;54.43;;;28.13;;
10717;SDS011;13513;42.700;23.124;2022-11-15T02:03:01;56.30;;;28.57;;
10717;SDS011;13513;42.700;23.124;2022-11-15T02:05:32;50.03;;;28.03;;
10717;SDS011;13513;42.700;23.124;2022-11-15T02:08:04;48.90;;;27.70;;
10717;SDS011;13513;42.700;23.124;2022-11-15T02:13:08;43.30;;;24.27;;
10717;SDS011;13513;42.700;23.124;2022-11-15T02:15:40;45.63;;;25.77;;
10717;SDS011;13513;42.700;23.124;2022-11-15T02:18:16;41.40;;;24.23;;
10717;SDS011;13513;42.700;23.124;2022-11-15T02:20:51;38.90;;;23.80;;
10717;SDS011;13513;42.700;23.124;2022-11-15T02:26:37;47.53;;;27.47;;
10717;SDS011;13513;42.700;23.124;2022-11-15T02:29:28;45.40;;;26.77;;
10717;SDS011;13513;42.700;23.124;2022-11-15T02:32:00;51.00;;;29.80;;
10717;SDS011;13513;42.700;23.124;2022-11-15T02:42:30;47.77;;;26.47;;
10717;SDS011;13513;42.700;23.124;2022-11-15T02:45:19;48.23;;;26.37;;
10717;SDS011;13513;42.700;23.124;2022-11-15T02:47:52;45.93;;;26.33;;
10717;SDS011;13513;42.700;23.124;2022-11-15T02:50:25;54.60;;;27.27;;
10717;SDS011;13513;42.700;23.124;2022-11-15T02:52:57;43.00;;;24.97;;
10717;SDS011;13513;42.700;23.124;2022-11-15T02:55:31;36.70;;;20.30;;
10717;SDS011;13513;42.700;23.124;2022-11-15T02:58:19;38.23;;;20.13;;
10717;SDS011;13513;42.700;23.124;2022-11-15T03:00:49;37.37;;;18.57;;
10717;SDS011;13513;42.700;23.124;2022-11-15T03:06:09;36.97;;;20.80;;
10717;SDS011;13513;42.700;23.124;2022-11-15T03:09:02;38.33;;;20.77;;
10717;SDS011;13513;42.700;23.124;2022-11-15T03:11:32;35.53;;;21.10;;
10717;SDS011;13513;42.700;23.124;2022-11-15T03:16:49;37.33;;;22.43;;
10717;SDS011;13513;42.700;23.124;2022-11-15T03:19:30;42.60;;;23.40;;
10717;SDS011;13513;42.700;23.124;2022-11-15T03:21:59;45.73;;;25.30;;
10717;SDS011;13513;42.700;23.124;2022-11-15T03:24:31;38.27;;;22.47;;
10717;SDS011;13513;42.700;23.124;2022-11-15T03:27:04;40.57;;;23.67;;
10717;SDS011;13513;42.700;23.124;2022-11-15T03:29:37;46.00;;;24.37;;
10717;SDS011;13513;42.700;23.124;2022-11-15T03:32:10;38.57;;;23.27;;
10717;SDS011;13513;42.700;23.124;2022-11-15T03:34:51;42.37;;;24.03;;
10717;SDS011;13513;42.700;23.124;2022-11-15T03:37:14;40.97;;;23.27;;
10717;SDS011;13513;42.700;23.124;2022-11-15T03:39:47;43.13;;;23.93;;
10717;SDS011;13513;42.700;23.124;2022-11-15T03:42:22;42.20;;;24.13;;
10717;SDS011;13513;42.700;23.124;2022-11-15T03:44:54;38.43;;;22.03;;
10717;SDS011;13513;42.700;23.124;2022-11-15T03:47:29;40.93;;;22.47;;
10717;SDS011;13513;42.700;23.124;2022-11-15T03:50:07;40.97;;;23.10;;
10717;SDS011;13513;42.700;23.124;2022-11-15T03:52:36;40.20;;;21.13;;
10717;SDS011;13513;42.700;23.124;2022-11-15T03:55:09;38.13;;;21.07;;
10717;SDS011;13513;42.700;23.124;2022-11-15T03:57:39;36.80;;;22.67;;
10717;SDS011;13513;42.700;23.124;2022-11-15T04:00:09;40.43;;;22.70;;
10717;SDS011;13513;42.700;23.124;2022-11-15T04:02:41;37.43;;;22.27;;
10717;SDS011;13513;42.700;23.124;2022-11-15T04:05:11;43.03;;;23.07;;
10717;SDS011;13513;42.700;23.124;2022-11-15T04:07:42;35.83;;;22.97;;
10717;SDS011;13513;42.700;23.124;2022-11-15T04:10:13;39.37;;;22.33;;
10717;SDS011;13513;42.700;23.124;2022-11-15T04:12:45;43.90;;;24.47;;
10717;SDS011;13513;42.700;23.124;2022-11-15T04:15:16;47.37;;;24.20;;
10717;SDS011;13513;42.700;23.124;2022-11-15T04:17:49;38.90;;;23.77;;
10717;SDS011;13513;42.700;23.124;2022-11-15T04:20:24;44.83;;;23.77;;
10717;SDS011;13513;42.700;23.124;2022-11-15T04:23:12;45.23;;;24.73;;
10717;SDS011;13513;42.700;23.124;2022-11-15T04:26:04;52.77;;;26.20;;
10717;SDS011;13513;42.700;23.124;2022-11-15T04:28:35;85.67;;;27.63;;
10717;SDS011;13513;42.700;23.124;2022-11-15T04:31:23;109.23;;;27.27;;
10717;SDS011;13513;42.700;23.124;2022-11-15T04:33:53;84.27;;;27.60;;
10717;SDS011;13513;42.700;23.124;2022-11-15T04:36:24;89.43;;;28.90;;
10717;SDS011;13513;42.700;23.124;2022-11-15T04:39:11;230.30;;;29.00;;
10717;SDS011;13513;42.700;23.124;2022-11-15T04:41:41;233.90;;;28.30;;
10717;SDS011;13513;42.700;23.124;2022-11-15T04:44:12;229.57;;;29.53;;
10717;SDS011;13513;42.700;23.124;2022-11-15T04:46:43;289.53;;;27.47;;
10717;SDS011;13513;42.700;23.124;2022-11-15T04:49:14;301.80;;;27.07;;
10717;SDS011;13513;42.700;23.124;2022-11-15T04:51:45;205.20;;;26.90;;
10717;SDS011;13513;42.700;23.124;2022-11-15T04:54:15;222.27;;;25.00;;
10717;SDS011;13513;42.700;23.124;2022-11-15T04:56:46;324.50;;;26.30;;
10717;SDS011;13513;42.700;23.124;2022-11-15T04:59:17;321.30;;;26.20;;
10717;SDS011;13513;42.700;23.124;2022-11-15T05:01:48;509.97;;;31.37;;
10717;SDS011;13513;42.700;23.124;2022-11-15T05:04:19;409.77;;;28.70;;
10717;SDS011;13513;42.700;23.124;2022-11-15T05:06:50;336.50;;;28.00;;
10717;SDS011;13513;42.700;23.124;2022-11-15T05:09:21;331.90;;;26.97;;
10717;SDS011;13513;42.700;23.124;2022-11-15T05:11:51;327.47;;;28.13;;
10717;SDS011;13513;42.700;23.124;2022-11-15T05:14:23;374.47;;;28.50;;
10717;SDS011;13513;42.700;23.124;2022-11-15T05:16:53;286.93;;;25.70;;
10717;SDS011;13513;42.700;23.124;2022-11-15T05:19:24;357.90;;;26.00;;
10717;SDS011;13513;42.700;23.124;2022-11-15T05:21:55;330.80;;;26.20;;
10717;SDS011;13513;42.700;23.124;2022-11-15T05:24:25;142.40;;;23.87;;
10717;SDS011;13513;42.700;23.124;2022-11-15T05:26:56;199.90;;;25.17;;
10717;SDS011;13513;42.700;23.124;2022-11-15T05:29:27;105.60;;;23.90;;
10717;SDS011;13513;42.700;23.124;2022-11-15T05:31:58;163.37;;;24.13;;
10717;SDS011;13513;42.700;23.124;2022-11-15T05:34:29;204.80;;;25.27;;
10717;SDS011;13513;42.700;23.124;2022-11-15T05:37:00;176.43;;;23.53;;
10717;SDS011;13513;42.700;23.124;2022-11-15T05:39:31;196.50;;;23.43;;
10717;SDS011;13513;42.700;23.124;2022-11-15T05:42:09;203.53;;;24.23;;
10717;SDS011;13513;42.700;23.124;2022-11-15T05:44:44;79.47;;;22.77;;
10717;SDS011;13513;42.700;23.124;2022-11-15T05:47:16;116.87;;;22.17;;
10717;SDS011;13513;42.700;23.124;2022-11-15T05:49:46;158.83;;;23.00;;
10717;SDS011;13513;42.700;23.124;2022-11-15T05:52:20;83.97;;;22.87;;
10717;SDS011;13513;42.700;23.124;2022-11-15T05:54:51;141.13;;;26.93;;
10717;SDS011;13513;42.700;23.124;2022-11-15T05:57:23;166.43;;;27.37;;
10717;SDS011;13513;42.700;23.124;2022-11-15T05:59:54;147.73;;;24.17;;
10717;SDS011;13513;42.700;23.124;2022-11-15T06:02:24;220.90;;;23.33;;
10717;SDS011;13513;42.700;23.124;2022-11-15T06:04:55;190.73;;;20.07;;
10717;SDS011;13513;42.700;23.124;2022-11-15T06:07:25;144.27;;;22.47;;
10717;SDS011;13513;42.700;23.124;2022-11-15T06:09:57;302.80;;;23.07;;
10717;SDS011;13513;42.700;23.124;2022-11-15T06:12:28;214.03;;;21.23;;
10717;SDS011;13513;42.700;23.124;2022-11-15T06:14:59;265.70;;;23.30;;
10717;SDS011;13513;42.700;23.124;2022-11-15T06:17:31;184.37;;;21.50;;
10717;SDS011;13513;42.700;23.124;2022-11-15T06:20:02;231.23;;;18.47;;
10717;SDS011;13513;42.700;23.124;2022-11-15T06:22:35;173.13;;;18.77;;
10717;SDS011;13513;42.700;23.124;2022-11-15T06:25:06;215.93;;;19.40;;
10717;SDS011;13513;42.700;23.124;2022-11-15T06:27:36;143.33;;;17.30;;
10717;SDS011;13513;42.700;23.124;2022-11-15T06:30:07;185.23;;;20.13;;
10717;SDS011;13513;42.700;23.124;2022-11-15T06:32:39;137.77;;;27.90;;
10717;SDS011;13513;42.700;23.124;2022-11-15T06:35:10;190.80;;;21.07;;
10717;SDS011;13513;42.700;23.124;2022-11-15T06:37:40;433.00;;;241.27;;
10717;SDS011;13513;42.700;23.124;2022-11-15T06:40:11;370.43;;;25.90;;
10717;SDS011;13513;42.700;23.124;2022-11-15T06:42:42;261.27;;;20.30;;
10717;SDS011;13513;42.700;23.124;2022-11-15T06:45:12;278.57;;;22.17;;
10717;SDS011;13513;42.700;23.124;2022-11-15T06:47:46;108.67;;;20.27;;
10717;SDS011;13513;42.700;23.124;2022-11-15T06:50:15;293.20;;;24.63;;
10717;SDS011;13513;42.700;23.124;2022-11-15T06:52:46;115.67;;;18.67;;
10717;SDS011;13513;42.700;23.124;2022-11-15T06:55:18;142.03;;;19.83;;
10717;SDS011;13513;42.700;23.124;2022-11-15T06:57:49;465.57;;;24.50;;
10717;SDS011;13513;42.700;23.124;2022-11-15T07:00:21;99.90;;;20.87;;
10717;SDS011;13513;42.700;23.124;2022-11-15T07:02:52;160.30;;;21.33;;
10717;SDS011;13513;42.700;23.124;2022-11-15T07:05:23;182.97;;;21.23;;
10717;SDS011;13513;42.700;23.124;2022-11-15T07:07:54;183.53;;;20.20;;
10717;SDS011;13513;42.700;23.124;2022-11-15T07:10:27;137.03;;;21.67;;
10717;SDS011;13513;42.700;23.124;2022-11-15T07:12:58;168.57;;;20.60;;
10717;SDS011;13513;42.700;23.124;2022-11-15T07:15:29;134.97;;;20.47;;
10717;SDS011;13513;42.700;23.124;2022-11-15T07:18:00;80.87;;;19.77;;
10717;SDS011;13513;42.700;23.124;2022-11-15T07:20:31;135.60;;;21.23;;
10717;SDS011;13513;42.700;23.124;2022-11-15T07:23:03;326.73;;;24.03;;
10717;SDS011;13513;42.700;23.124;2022-11-15T07:25:34;217.73;;;22.33;;
10717;SDS011;13513;42.700;23.124;2022-11-15T07:28:05;222.27;;;31.10;;
10717;SDS011;13513;42.700;23.124;2022-11-15T07:30:36;217.20;;;37.77;;
10717;SDS011;13513;42.700;23.124;2022-11-15T07:33:07;96.00;;;33.30;;
10717;SDS011;13513;42.700;23.124;2022-11-15T07:35:38;202.40;;;34.10;;
10717;SDS011;13513;42.700;23.124;2022-11-15T07:38:09;343.83;;;38.40;;
10717;SDS011;13513;42.700;23.124;2022-11-15T07:40:40;217.43;;;24.23;;
10717;SDS011;13513;42.700;23.124;2022-11-15T07:43:11;268.60;;;26.30;;
10717;SDS011;13513;42.700;23.124;2022-11-15T07:45:42;187.97;;;26.10;;
10717;SDS011;13513;42.700;23.124;2022-11-15T07:48:13;123.07;;;24.70;;
10717;SDS011;13513;42.700;23.124;2022-11-15T07:50:44;174.10;;;32.60;;
10717;SDS011;13513;42.700;23.124;2022-11-15T07:53:15;106.93;;;29.10;;
10717;SDS011;13513;42.700;23.124;2022-11-15T07:55:45;84.27;;;35.27;;
10717;SDS011;13513;42.700;23.124;2022-11-15T07:58:16;127.63;;;33.83;;
10717;SDS011;13513;42.700;23.124;2022-11-15T08:00:47;245.63;;;34.13;;
10717;SDS011;13513;42.700;23.124;2022-11-15T08:03:17;192.10;;;33.23;;
10717;SDS011;13513;42.700;23.124;2022-11-15T08:05:51;65.57;;;29.37;;
10717;SDS011;13513;42.700;23.124;2022-11-15T08:08:22;42.17;;;22.90;;
10717;SDS011;13513;42.700;23.124;2022-11-15T08:10:53;66.67;;;23.37;;
10717;SDS011;13513;42.700;23.124;2022-11-15T08:13:22;66.27;;;26.43;;
10717;SDS011;13513;42.700;23.124;2022-11-15T08:16:00;140.00;;;34.87;;
10717;SDS011;13513;42.700;23.124;2022-11-15T08:18:31;118.93;;;29.40;;
10717;SDS011;13513;42.700;23.124;2022-11-15T08:21:02;86.17;;;30.43;;
10717;SDS011;13513;42.700;23.124;2022-11-15T08:23:32;119.40;;;28.03;;
10717;SDS011;13513;42.700;23.124;2022-11-15T08:26:03;74.13;;;28.37;;
10717;SDS011;13513;42.700;23.124;2022-11-15T08:28:35;67.67;;;29.70;;
10717;SDS011;13513;42.700;23.124;2022-11-15T08:31:05;118.60;;;28.27;;
10717;SDS011;13513;42.700;23.124;2022-11-15T08:33:36;97.93;;;27.87;;
10717;SDS011;13513;42.700;23.124;2022-11-15T08:36:10;112.50;;;32.70;;
10717;SDS011;13513;42.700;23.124;2022-11-15T08:38:42;116.57;;;23.60;;
10717;SDS011;13513;42.700;23.124;2022-11-15T08:41:24;126.97;;;29.27;;
10717;SDS011;13513;42.700;23.124;2022-11-15T08:43:51;107.73;;;25.93;;
10717;SDS011;13513;42.700;23.124;2022-11-15T08:46:21;99.23;;;21.90;;
10717;SDS011;13513;42.700;23.124;2022-11-15T08:48:52;81.50;;;30.03;;
10717;SDS011;13513;42.700;23.124;2022-11-15T08:51:24;77.83;;;23.93;;
10717;SDS011;13513;42.700;23.124;2022-11-15T08:53:54;75.10;;;25.87;;
10717;SDS011;13513;42.700;23.124;2022-11-15T08:56:25;52.87;;;25.07;;
10717;SDS011;13513;42.700;23.124;2022-11-15T08:58:55;83.43;;;26.33;;
10717;SDS011;13513;42.700;23.124;2022-11-15T09:01:26;66.50;;;24.43;;
10717;SDS011;13513;42.700;23.124;2022-11-15T09:03:57;59.13;;;28.53;;
10717;SDS011;13513;42.700;23.124;2022-11-15T09:06:28;71.77;;;25.97;;
10717;SDS011;13513;42.700;23.124;2022-11-15T09:08:59;90.43;;;26.63;;
10717;SDS011;13513;42.700;23.124;2022-11-15T09:11:30;70.73;;;24.17;;
10717;SDS011;13513;42.700;23.124;2022-11-15T09:14:01;88.13;;;24.20;;
10717;SDS011;13513;42.700;23.124;2022-11-15T09:16:30;60.67;;;25.70;;
10717;SDS011;13513;42.700;23.124;2022-11-15T09:19:01;100.50;;;23.47;;
10717;SDS011;13513;42.700;23.124;2022-11-15T09:21:31;81.77;;;26.40;;
10717;SDS011;13513;42.700;23.124;2022-11-15T09:24:01;53.67;;;28.30;;
10717;SDS011;13513;42.700;23.124;2022-11-15T09:26:31;75.83;;;29.17;;
10717;SDS011;13513;42.700;23.124;2022-11-15T09:29:02;110.67;;;24.90;;
10717;SDS011;13513;42.700;23.124;2022-11-15T09:31:34;69.10;;;26.13;;
10717;SDS011;13513;42.700;23.124;2022-11-15T09:34:05;55.23;;;24.93;;
10717;SDS011;13513;42.700;23.124;2022-11-15T09:36:36;97.97;;;25.90;;
10717;SDS011;13513;42.700;23.124;2022-11-15T09:39:07;57.57;;;26.67;;
10717;SDS011;13513;42.700;23.124;2022-11-15T09:44:41;56.57;;;25.53;;
10717;SDS011;13513;42.700;23.124;2022-11-15T09:50:10;81.60;;;28.00;;
10717;SDS011;13513;42.700;23.124;2022-11-15T09:52:42;50.37;;;24.87;;
10717;SDS011;13513;42.700;23.124;2022-11-15T09:55:13;77.97;;;26.47;;
10717;SDS011;13513;42.700;23.124;2022-11-15T09:57:47;69.27;;;28.93;;
10717;SDS011;13513;42.700;23.124;2022-11-15T10:00:21;64.40;;;26.13;;
10717;SDS011;13513;42.700;23.124;2022-11-15T10:05:38;111.80;;;24.13;;
10717;SDS011;13513;42.700;23.124;2022-11-15T10:11:11;45.87;;;24.13;;
10717;SDS011;13513;42.700;23.124;2022-11-15T10:13:49;48.13;;;23.60;;
10717;SDS011;13513;42.700;23.124;2022-11-15T10:19:28;52.77;;;25.70;;
10717;SDS011;13513;42.700;23.124;2022-11-15T10:22:20;48.07;;;25.73;;
10717;SDS011;13513;42.700;23.124;2022-11-15T10:24:49;41.73;;;23.20;;
10717;SDS011;13513;42.700;23.124;2022-11-15T10:27:21;46.10;;;24.57;;
10717;SDS011;13513;42.700;23.124;2022-11-15T10:29:52;44.93;;;25.30;;
10717;SDS011;13513;42.700;23.124;2022-11-15T10:32:23;43.13;;;24.80;;
10717;SDS011;13513;42.700;23.124;2022-11-15T10:34:54;48.03;;;26.10;;
10717;SDS011;13513;42.700;23.124;2022-11-15T10:37:29;42.77;;;24.97;;
10717;SDS011;13513;42.700;23.124;2022-11-15T10:40:05;45.10;;;25.40;;
10717;SDS011;13513;42.700;23.124;2022-11-15T10:42:35;42.63;;;25.60;;
10717;SDS011;13513;42.700;23.124;2022-11-15T10:45:26;45.50;;;26.30;;
10717;SDS011;13513;42.700;23.124;2022-11-15T10:48:14;48.67;;;27.57;;
10717;SDS011;13513;42.700;23.124;2022-11-15T10:50:37;50.90;;;27.90;;
10717;SDS011;13513;42.700;23.124;2022-11-15T10:53:38;48.37;;;27.00;;
10717;SDS011;13513;42.700;23.124;2022-11-15T10:55:47;50.97;;;29.60;;
10717;SDS011;13513;42.700;23.124;2022-11-15T11:01:11;50.67;;;27.67;;
10717;SDS011;13513;42.700;23.124;2022-11-15T11:03:45;46.13;;;26.60;;
10717;SDS011;13513;42.700;23.124;2022-11-15T11:06:20;55.07;;;29.03;;
10717;SDS011;13513;42.700;23.124;2022-11-15T11:09:01;48.47;;;28.27;;
10717;SDS011;13513;42.700;23.124;2022-11-15T11:11:49;53.07;;;28.47;;
10717;SDS011;13513;42.700;23.124;2022-11-15T11:14:20;48.43;;;27.93;;
10717;SDS011;13513;42.700;23.124;2022-11-15T11:16:54;50.17;;;29.07;;
10717;SDS011;13513;42.700;23.124;2022-11-15T11:19:40;51.73;;;29.30;;
10717;SDS011;13513;42.700;23.124;2022-11-15T11:27:38;48.52;;;29.00;;
10717;SDS011;13513;42.700;23.124;2022-11-15T11:30:24;50.33;;;28.97;;
10717;SDS011;13513;42.700;23.124;2022-11-15T11:35:43;62.20;;;34.73;;
10717;SDS011;13513;42.700;23.124;2022-11-15T11:38:44;65.37;;;35.60;;
10717;SDS011;13513;42.700;23.124;2022-11-15T11:49:36;75.70;;;40.38;;
10717;SDS011;13513;42.700;23.124;2022-11-15T11:52:17;85.77;;;44.65;;
10717;SDS011;13513;42.700;23.124;2022-11-15T12:03:12;86.37;;;45.63;;
10717;SDS011;13513;42.700;23.124;2022-11-15T12:05:44;96.75;;;47.13;;
10717;SDS011;13513;42.700;23.124;2022-11-15T12:11:17;98.82;;;52.58;;
10717;SDS011;13513;42.700;23.124;2022-11-15T12:13:51;92.65;;;48.65;;
10717;SDS011;13513;42.700;23.124;2022-11-15T12:16:22;93.40;;;49.27;;
10717;SDS011;13513;42.700;23.124;2022-11-15T12:18:54;99.07;;;51.13;;
10717;SDS011;13513;42.700;23.124;2022-11-15T12:21:34;104.27;;;52.40;;
10717;SDS011;13513;42.700;23.124;2022-11-15T12:24:25;107.33;;;51.23;;
10717;SDS011;13513;42.700;23.124;2022-11-15T12:27:17;113.17;;;54.50;;
10717;SDS011;13513;42.700;23.124;2022-11-15T12:29:52;103.40;;;52.90;;
10717;SDS011;13513;42.700;23.124;2022-11-15T12:32:28;104.57;;;52.27;;
10717;SDS011;13513;42.700;23.124;2022-11-15T12:35:02;107.43;;;51.83;;
10717;SDS011;13513;42.700;23.124;2022-11-15T12:37:46;110.57;;;54.73;;
10717;SDS011;13513;42.700;23.124;2022-11-15T12:45:34;120.53;;;55.60;;
10717;SDS011;13513;42.700;23.124;2022-11-15T12:51:05;119.87;;;60.20;;
10717;SDS011;13513;42.700;23.124;2022-11-15T12:53:36;121.50;;;59.30;;
10717;SDS011;13513;42.700;23.124;2022-11-15T12:56:17;119.00;;;58.57;;
10717;SDS011;13513;42.700;23.124;2022-11-15T13:06:59;131.40;;;62.33;;
10717;SDS011;13513;42.700;23.124;2022-11-15T13:15:01;132.17;;;64.63;;
10717;SDS011;13513;42.700;23.124;2022-11-15T13:17:48;130.60;;;62.80;;
10717;SDS011;13513;42.700;23.124;2022-11-15T13:20:23;126.33;;;63.37;;
10717;SDS011;13513;42.700;23.124;2022-11-15T13:25:48;117.03;;;58.00;;
10717;SDS011;13513;42.700;23.124;2022-11-15T13:28:20;115.80;;;61.67;;
10717;SDS011;13513;42.700;23.124;2022-11-15T13:30:52;118.93;;;60.20;;
10717;SDS011;13513;42.700;23.124;2022-11-15T13:33:32;127.47;;;60.50;;
10717;SDS011;13513;42.700;23.124;2022-11-15T13:36:07;117.83;;;56.53;;
10717;SDS011;13513;42.700;23.124;2022-11-15T13:38:54;116.77;;;59.33;;
10717;SDS011;13513;42.700;23.124;2022-11-15T13:41:33;121.97;;;60.43;;
10717;SDS011;13513;42.700;23.124;2022-11-15T13:44:00;121.57;;;60.87;;
10717;SDS011;13513;42.700;23.124;2022-11-15T13:46:31;114.40;;;58.77;;
10717;SDS011;13513;42.700;23.124;2022-11-15T13:49:04;116.37;;;59.80;;
10717;SDS011;13513;42.700;23.124;2022-11-15T13:54:25;113.23;;;58.80;;
10717;SDS011;13513;42.700;23.124;2022-11-15T13:59:45;113.57;;;55.93;;
10717;SDS011;13513;42.700;23.124;2022-11-15T14:02:18;105.30;;;56.47;;
10717;SDS011;13513;42.700;23.124;2022-11-15T14:04:50;107.27;;;55.93;;
10717;SDS011;13513;42.700;23.124;2022-11-15T14:07:24;103.40;;;54.63;;
10717;SDS011;13513;42.700;23.124;2022-11-15T14:09:57;99.97;;;53.47;;
10717;SDS011;13513;42.700;23.124;2022-11-15T14:12:30;97.87;;;52.63;;
10717;SDS011;13513;42.700;23.124;2022-11-15T14:17:55;101.70;;;52.30;;
10717;SDS011;13513;42.700;23.124;2022-11-15T14:23:06;92.07;;;51.57;;
10717;SDS011;13513;42.700;23.124;2022-11-15T14:25:53;99.07;;;53.23;;
10717;SDS011;13513;42.700;23.124;2022-11-15T14:28:31;101.23;;;53.90;;
10717;SDS011;13513;42.700;23.124;2022-11-15T14:31:00;113.07;;;57.17;;
10717;SDS011;13513;42.700;23.124;2022-11-15T14:33:33;108.30;;;56.73;;
10717;SDS011;13513;42.700;23.124;2022-11-15T14:36:05;114.17;;;59.27;;
10717;SDS011;13513;42.700;23.124;2022-11-15T14:38:36;114.37;;;60.43;;
10717;SDS011;13513;42.700;23.124;2022-11-15T14:41:18;117.93;;;61.43;;
10717;SDS011;13513;42.700;23.124;2022-11-15T14:43:49;117.37;;;60.23;;
10717;SDS011;13513;42.700;23.124;2022-11-15T14:46:21;106.77;;;56.03;;
10717;SDS011;13513;42.700;23.124;2022-11-15T14:48:52;108.10;;;58.60;;
10717;SDS011;13513;42.700;23.124;2022-11-15T14:51:22;120.13;;;58.90;;
10717;SDS011;13513;42.700;23.124;2022-11-15T14:53:53;120.80;;;63.07;;
10717;SDS011;13513;42.700;23.124;2022-11-15T14:56:24;111.70;;;60.57;;
10717;SDS011;13513;42.700;23.124;2022-11-15T14:58:55;109.77;;;58.97;;
10717;SDS011;13513;42.700;23.124;2022-11-15T15:01:26;111.87;;;58.10;;
10717;SDS011;13513;42.700;23.124;2022-11-15T15:03:57;105.80;;;53.93;;
10717;SDS011;13513;42.700;23.124;2022-11-15T15:06:28;103.67;;;54.47;;
10717;SDS011;13513;42.700;23.124;2022-11-15T15:08:59;102.77;;;56.37;;
10717;SDS011;13513;42.700;23.124;2022-11-15T15:11:30;113.03;;;59.33;;
10717;SDS011;13513;42.700;23.124;2022-11-15T15:14:01;106.97;;;54.23;;
10717;SDS011;13513;42.700;23.124;2022-11-15T15:16:31;125.93;;;63.07;;
10717;SDS011;13513;42.700;23.124;2022-11-15T15:19:02;115.83;;;61.30;;
10717;SDS011;13513;42.700;23.124;2022-11-15T15:21:33;128.30;;;64.77;;
10717;SDS011;13513;42.700;23.124;2022-11-15T15:24:04;123.03;;;62.67;;
10717;SDS011;13513;42.700;23.124;2022-11-15T15:26:37;115.90;;;60.87;;
10717;SDS011;13513;42.700;23.124;2022-11-15T15:29:09;110.23;;;57.10;;
10717;SDS011;13513;42.700;23.124;2022-11-15T15:31:39;101.83;;;55.20;;
10717;SDS011;13513;42.700;23.124;2022-11-15T15:34:10;116.70;;;57.93;;
10717;SDS011;13513;42.700;23.124;2022-11-15T15:36:41;114.87;;;58.90;;
10717;SDS011;13513;42.700;23.124;2022-11-15T15:39:12;109.67;;;56.93;;
10717;SDS011;13513;42.700;23.124;2022-11-15T15:41:43;112.37;;;58.07;;
10717;SDS011;13513;42.700;23.124;2022-11-15T15:44:14;105.03;;;53.53;;
10717;SDS011;13513;42.700;23.124;2022-11-15T15:46:45;103.07;;;53.33;;
10717;SDS011;13513;42.700;23.124;2022-11-15T15:49:16;110.90;;;56.33;;
10717;SDS011;13513;42.700;23.124;2022-11-15T15:51:48;103.43;;;52.97;;
10717;SDS011;13513;42.700;23.124;2022-11-15T15:54:19;107.27;;;52.97;;
10717;SDS011;13513;42.700;23.124;2022-11-15T15:56:53;98.30;;;50.80;;
10717;SDS011;13513;42.700;23.124;2022-11-15T15:59:27;100.27;;;52.00;;
10717;SDS011;13513;42.700;23.124;2022-11-15T16:01:58;92.20;;;48.17;;
10717;SDS011;13513;42.700;23.124;2022-11-15T16:04:28;86.70;;;46.67;;
10717;SDS011;13513;42.700;23.124;2022-11-15T16:06:58;83.00;;;45.90;;
10717;SDS011;13513;42.700;23.124;2022-11-15T16:09:30;87.60;;;46.43;;
10717;SDS011;13513;42.700;23.124;2022-11-15T16:12:18;92.07;;;46.67;;
10717;SDS011;13513;42.700;23.124;2022-11-15T16:14:49;79.33;;;42.90;;
10717;SDS011;13513;42.700;23.124;2022-11-15T16:17:21;73.67;;;42.73;;
10717;SDS011;13513;42.700;23.124;2022-11-15T16:19:55;113.40;;;57.37;;